Time;durP1;ratioP1;P1;durP2;ratioP2;P2;SDS_P1;SDS_P2;PMS_P1;PMS_P2;Temp;Humidity;BMP_temperature;BMP_pressure;BME280_temperature;BME280_humidity;BME280_pressure;Samples;Min_cycle;Max_cycle;Signal;HPM_P1;HPM_P2
2022/07/26 00:01:04;;;;;;;;;;;;;;;-142.75;100.00;76056.56;5016143;28;19917;-73
2022/07/26 00:03:29;;;;;;;;;;;;;;;-142.75;100.00;76066.41;5034334;28;19913;-74
2022/07/26 00:05:55;;;;;;;;;;;;;;;-142.75;100.00;76078.19;5034181;28;19913;-73
2022/07/26 00:08:20;;;;;;;;;;;;;;;-142.75;100.00;76090.00;5033692;28;20520;-73
2022/07/26 00:10:50;;;;;;;;;;;;;;;-142.75;100.00;76101.81;5016088;28;20029;-73
2022/07/26 00:13:18;;;;;;;;;;;;;;;-142.75;100.00;76103.78;5033987;28;20291;-75
2022/07/26 00:15:44;;;;;;;;;;;;;;;-142.75;100.00;76113.63;5033974;28;19913;-73
2022/07/26 00:18:09;;;;;;;;;;;;;;;-142.75;100.00;76129.38;5033647;28;20393;-73
2022/07/26 00:20:35;;;;;;;;;;;;;;;-142.75;100.00;76137.25;5033684;28;20322;-72
2022/07/26 00:23:00;;;;;;;;;;;;;;;-142.75;100.00;76129.38;5033637;28;19982;-73
2022/07/26 00:25:25;;;;;;;;;;;;;;;-142.75;100.00;76143.16;5033675;28;19940;-73
2022/07/26 00:27:51;;;;;;;;;;;;;;;-142.75;100.00;76151.03;5033409;28;19935;-73
2022/07/26 00:30:16;;;;;;;;;;;;;;;-142.75;100.00;76172.69;5032851;28;20294;-73
2022/07/26 00:32:42;;;;;;;;;;;;;;;-142.75;100.00;76184.50;5015917;28;20019;-73
2022/07/26 00:35:07;;;;;;;;;;;;;;;-142.75;100.00;76184.50;5033619;28;19913;-73
2022/07/26 00:37:33;;;;;;;;;;;;;;;-142.75;100.00;76192.38;5033207;28;19940;-73
2022/07/26 00:39:58;;;;;;;;;;;;;;;-142.75;100.00;76204.16;5033082;28;19921;-73
2022/07/26 00:42:23;;;;;;;;;;;;;;;-142.75;100.00;76202.19;5033436;28;19975;-73
2022/07/26 00:44:48;;;;;;;;;;;;;;;-142.75;100.00;76210.06;5033428;28;19913;-71
2022/07/26 00:47:14;;;;;;;;;;;;;;;-142.75;100.00;76215.97;5033037;28;19968;-72
2022/07/26 00:49:39;;;;;;;;;;;;;;;-142.75;100.00;76214.00;5033337;28;19921;-71
2022/07/26 00:52:05;;;;;;;;;;;;;;;-142.75;100.00;76215.97;5015392;28;19920;-73
2022/07/26 00:54:30;;;;;;;;;;;;;;;-142.75;100.00;76219.91;5015611;28;19992;-74
2022/07/26 00:56:56;;;;;;;;;;;;;;;-142.75;100.00;76233.69;5032863;28;20597;-72
2022/07/26 00:59:21;;;;;;;;;;;;;;;-142.75;100.00;76231.72;5033044;28;19913;-74
2022/07/26 01:01:46;;;;;;;;;;;;;;;-142.75;100.00;76239.59;5015371;28;19970;-72
2022/07/26 01:04:11;;;;;;;;;;;;;;;-142.75;100.00;76247.47;5033013;28;19920;-72
2022/07/26 01:06:37;;;;;;;;;;;;;;;-142.75;100.00;76251.41;5032732;28;20342;-70
2022/07/26 01:09:04;;;;;;;;;;;;;;;-142.75;100.00;76247.47;5032901;28;19920;-73
2022/07/26 01:11:29;;;;;;;;;;;;;;;-142.75;100.00;76255.34;5032992;28;19913;-72
2022/07/26 01:13:54;;;;;;;;;;;;;;;-142.75;100.00;76259.28;5033021;28;20353;-73
2022/07/26 01:16:19;;;;;;;;;;;;;;;-142.75;100.00;76271.09;5032730;28;19920;-73
2022/07/26 01:18:45;;;;;;;;;;;;;;;-142.75;100.00;76275.03;5014768;28;20305;-70
2022/07/26 01:21:10;;;;;;;;;;;;;;;-142.75;100.00;76284.88;5032515;28;19917;-73
2022/07/26 01:23:35;;;;;;;;;;;;;;;-142.75;100.00;76288.81;5015331;28;19913;-71
2022/07/26 01:26:01;;;;;;;;;;;;;;;-142.75;100.00;76290.78;5032609;28;19921;-75
2022/07/26 01:28:26;;;;;;;;;;;;;;;-142.75;100.00;76296.69;5032530;28;19924;-73
2022/07/26 01:30:51;;;;;;;;;;;;;;;-142.75;100.00;76302.59;5032616;28;19928;-74
2022/07/26 01:33:16;;;;;;;;;;;;;;;-142.75;100.00;76306.53;5032618;28;19917;-72
2022/07/26 01:35:41;;;;;;;;;;;;;;;-142.75;100.00;76308.50;5032572;28;19913;-73
2022/07/26 01:38:07;;;;;;;;;;;;;;;-142.75;100.00;76316.38;5032540;28;19921;-73
2022/07/26 01:40:32;;;;;;;;;;;;;;;-142.75;100.00;76318.34;5053601;22;20451;-67
2022/07/26 01:42:57;;;;;;;;;;;;;;;-142.75;100.00;76326.22;5031399;28;19983;-66
2022/07/26 01:45:22;;;;;;;;;;;;;;;-142.75;100.00;76345.91;5031926;28;20003;-67
2022/07/26 01:47:49;;;;;;;;;;;;;;;-142.75;100.00;76345.91;5031897;28;20382;-66
2022/07/26 01:50:14;;;;;;;;;;;;;;;-142.75;100.00;76345.91;5033544;28;19913;-67
2022/07/26 01:52:39;;;;;;;;;;;;;;;-142.75;100.00;76349.81;5018435;28;19975;-67
2022/07/26 01:55:05;;;;;;;;;;;;;;;-142.75;100.00;76357.69;5036258;28;19966;-67
2022/07/26 01:57:30;;;;;;;;;;;;;;;-142.75;100.00;76363.59;5035928;28;19920;-67
2022/07/26 01:59:55;;;;;;;;;;;;;;;-142.75;100.00;76367.53;5036005;28;19917;-67
2022/07/26 02:02:20;;;;;;;;;;;;;;;-142.75;100.00;76369.50;5036071;28;19920;-67
2022/07/26 02:04:57;;;;;;;;;;;;;;;-142.75;100.00;76371.47;5036017;28;20424;-67
2022/07/26 02:07:36;;;;;;;;;;;;;;;-142.75;100.00;76369.50;5035736;28;19913;-67
2022/07/26 02:10:01;;;;;;;;;;;;;;;-142.75;100.00;76373.44;5035973;28;19913;-67
2022/07/26 02:12:26;;;;;;;;;;;;;;;-142.75;100.00;76377.38;5035903;28;19913;-67
2022/07/26 02:14:51;;;;;;;;;;;;;;;-142.75;100.00;76385.25;5035898;28;20012;-67
2022/07/26 02:17:17;;;;;;;;;;;;;;;-142.75;100.00;76381.31;5035456;28;19920;-67
2022/07/26 02:19:42;;;;;;;;;;;;;;;-142.75;100.00;76387.22;5035669;28;19917;-67
2022/07/26 02:22:07;;;;;;;;;;;;;;;-142.75;100.00;76391.16;5035670;28;20374;-67
2022/07/26 02:24:33;;;;;;;;;;;;;;;-142.75;100.00;76393.13;5035728;28;19949;-67
2022/07/26 02:26:59;;;;;;;;;;;;;;;-142.75;100.00;76395.09;5035378;28;20293;-66
2022/07/26 02:29:24;;;;;;;;;;;;;;;-142.75;100.00;76399.03;5035452;28;19913;-67
2022/07/26 02:31:50;;;;;;;;;;;;;;;-142.75;100.00;76397.06;5035491;28;20008;-67
2022/07/26 02:34:15;;;;;;;;;;;;;;;-142.75;100.00;76395.09;5035465;28;19975;-67
2022/07/26 02:36:41;;;;;;;;;;;;;;;-142.75;100.00;76401.00;5035183;28;19913;-67
2022/07/26 02:39:06;;;;;;;;;;;;;;;-142.75;100.00;76412.81;5035418;28;19913;-67
2022/07/26 02:41:31;;;;;;;;;;;;;;;-142.75;100.00;76414.78;5035062;28;19975;-67
2022/07/26 02:43:57;;;;;;;;;;;;;;;-142.75;100.00;76414.78;5035322;28;19967;-67
2022/07/26 02:46:22;;;;;;;;;;;;;;;-142.75;100.00;76424.63;5017516;28;19920;-67
2022/07/26 02:48:47;;;;;;;;;;;;;;;-142.75;100.00;76430.53;5034893;28;20363;-67
2022/07/26 02:51:12;;;;;;;;;;;;;;;-142.75;100.00;76428.56;5035100;28;20362;-67
2022/07/26 02:53:37;;;;;;;;;;;;;;;-142.75;100.00;76430.53;5017401;28;19921;-67
2022/07/26 02:56:03;;;;;;;;;;;;;;;-142.75;100.00;76430.53;5035264;28;19913;-67
2022/07/26 02:58:28;;;;;;;;;;;;;;;-142.75;100.00;76432.50;5034915;28;19917;-67
2022/07/26 03:00:53;;;;;;;;;;;;;;;-142.75;100.00;76436.44;5034270;28;19963;-67
2022/07/26 03:03:19;;;;;;;;;;;;;;;-142.75;100.00;76442.34;5034239;28;20553;-67
2022/07/26 03:05:44;;;;;;;;;;;;;;;-142.75;100.00;76444.31;5017124;28;19920;-67
2022/07/26 03:08:09;;;;;;;;;;;;;;;-142.75;100.00;76446.28;5034683;28;19913;-67
2022/07/26 03:10:34;;;;;;;;;;;;;;;-142.75;100.00;76460.06;5034762;28;19917;-67
2022/07/26 03:13:00;;;;;;;;;;;;;;;-142.75;100.00;76460.06;5034839;28;19913;-67
2022/07/26 03:15:25;;;;;;;;;;;;;;;-142.75;100.00;76462.03;5034776;28;19917;-67
2022/07/26 03:17:50;;;;;;;;;;;;;;;-142.75;100.00;76462.03;5034396;28;19959;-67
2022/07/26 03:20:15;;;;;;;;;;;;;;;-142.75;100.00;76469.91;5034462;28;19925;-67
2022/07/26 03:22:41;;;;;;;;;;;;;;;-142.75;100.00;76467.94;5034691;28;20404;-67
2022/07/26 03:25:06;;;;;;;;;;;;;;;-142.75;100.00;76469.91;5034575;28;20305;-68
2022/07/26 03:27:31;;;;;;;;;;;;;;;-142.75;100.00;76471.88;5034325;28;19952;-67
2022/07/26 03:29:57;;;;;;;;;;;;;;;-142.75;100.00;76475.81;5034445;28;19949;-67
2022/07/26 03:32:22;;;;;;;;;;;;;;;-142.75;100.00;76477.78;5034425;28;20449;-67
2022/07/26 03:34:47;;;;;;;;;;;;;;;-142.75;100.00;76479.75;5016577;28;19924;-67
2022/07/26 03:37:13;;;;;;;;;;;;;;;-142.75;100.00;76487.63;5016295;28;19913;-67
2022/07/26 03:39:39;;;;;;;;;;;;;;;-142.75;100.00;76495.50;5034248;28;19917;-67
2022/07/26 03:42:04;;;;;;;;;;;;;;;-142.75;100.00;76497.47;5034143;28;19917;-67
2022/07/26 03:44:29;;;;;;;;;;;;;;;-142.75;100.00;76503.38;5034263;28;19940;-67
2022/07/26 03:46:55;;;;;;;;;;;;;;;-142.75;100.00;76507.31;5033841;28;20422;-67
2022/07/26 03:49:20;;;;;;;;;;;;;;;-142.75;100.00;76505.34;5034000;28;19917;-67
2022/07/26 03:51:45;;;;;;;;;;;;;;;-142.75;100.00;76495.50;5033997;28;19996;-67
2022/07/26 03:54:10;;;;;;;;;;;;;;;-142.75;100.00;76495.50;5034194;28;19936;-67
2022/07/26 03:56:35;;;;;;;;;;;;;;;-142.75;100.00;76501.41;5033716;28;20298;-66
2022/07/26 03:59:05;;;;;;;;;;;;;;;-142.75;100.00;76501.41;5033949;28;19963;-67
2022/07/26 04:01:31;;;;;;;;;;;;;;;-142.75;100.00;76511.25;5033693;28;19917;-67
2022/07/26 04:03:57;;;;;;;;;;;;;;;-142.75;100.00;76511.25;5033793;28;19920;-67
2022/07/26 04:06:22;;;;;;;;;;;;;;;-142.75;100.00;76513.22;5033784;28;20374;-67
2022/07/26 04:08:47;;;;;;;;;;;;;;;-142.75;100.00;76513.22;5033478;28;19917;-67
2022/07/26 04:11:13;;;;;;;;;;;;;;;-142.75;100.00;76517.16;5033634;28;19913;-67
2022/07/26 04:13:38;;;;;;;;;;;;;;;-142.75;100.00;76517.16;5033272;28;20003;-67
2022/07/26 04:16:03;;;;;;;;;;;;;;;-142.75;100.00;76525.03;5033573;28;19913;-67
2022/07/26 04:18:28;;;;;;;;;;;;;;;-142.75;100.00;76530.91;5033200;28;19913;-67
2022/07/26 04:20:54;;;;;;;;;;;;;;;-142.75;100.00;76534.84;5033401;28;19924;-67
2022/07/26 04:23:19;;;;;;;;;;;;;;;-142.75;100.00;76538.78;5015714;28;19913;-67
2022/07/26 04:25:44;;;;;;;;;;;;;;;-142.75;100.00;76536.84;5033434;28;19967;-67
2022/07/26 04:28:10;;;;;;;;;;;;;;;-142.75;100.00;76542.72;5033084;28;19920;-67
2022/07/26 04:30:35;;;;;;;;;;;;;;;-142.75;100.00;76534.84;5033263;28;20421;-67
2022/07/26 04:33:01;;;;;;;;;;;;;;;-142.75;100.00;76528.97;5015774;28;20104;-67
2022/07/26 04:35:26;;;;;;;;;;;;;;;-142.75;100.00;76527.00;5033271;28;19940;-67
2022/07/26 04:37:51;;;;;;;;;;;;;;;-142.75;100.00;76523.06;5032886;28;19913;-67
2022/07/26 04:40:18;;;;;;;;;;;;;;;-142.75;100.00;76527.00;5032929;28;19921;-67
2022/07/26 04:42:43;;;;;;;;;;;;;;;-142.75;100.00;76530.91;5033193;28;20374;-67
2022/07/26 04:45:09;;;;;;;;;;;;;;;-142.75;100.00;76525.03;5033030;28;19924;-67
2022/07/26 04:47:35;;;;;;;;;;;;;;;-142.75;100.00;76527.00;5032687;28;19913;-67
2022/07/26 04:50:00;;;;;;;;;;;;;;;-142.75;100.00;76532.88;5032935;28;19921;-67
2022/07/26 04:52:25;;;;;;;;;;;;;;;-142.75;100.00;76528.97;5032954;28;19913;-67
2022/07/26 04:54:50;;;;;;;;;;;;;;;-142.75;100.00;76527.00;5032892;28;19913;-67
2022/07/26 04:57:16;;;;;;;;;;;;;;;-142.75;100.00;76527.00;5032550;28;19956;-67
2022/07/26 04:59:41;;;;;;;;;;;;;;;-142.75;100.00;76527.00;5032717;28;20007;-67
2022/07/26 05:02:06;;;;;;;;;;;;;;;-142.75;100.00;76525.03;5032675;28;19920;-67
2022/07/26 05:04:31;;;;;;;;;;;;;;;-142.75;100.00;76521.09;5032669;28;19948;-67
2022/07/26 05:07:01;;;;;;;;;;;;;;;-142.75;100.00;76527.00;5032355;28;19919;-67
2022/07/26 05:09:27;;;;;;;;;;;;;;;-142.75;100.00;76525.03;5032749;28;20003;-67
2022/07/26 05:11:53;;;;;;;;;;;;;;;-142.75;100.00;76517.16;5032543;28;19955;-67
2022/07/26 05:14:18;;;;;;;;;;;;;;;-142.75;100.00;76523.06;5014817;28;19916;-67
2022/07/26 05:16:44;;;;;;;;;;;;;;;-142.75;100.00;76525.03;5032216;28;19913;-67
2022/07/26 05:19:09;;;;;;;;;;;;;;;-142.75;100.00;76534.84;5032496;28;19940;-67
2022/07/26 05:21:34;;;;;;;;;;;;;;;-142.75;100.00;76530.91;5032349;28;19983;-67
2022/07/26 05:23:59;;;;;;;;;;;;;;;-142.75;100.00;76540.75;5014413;28;19913;-68
2022/07/26 05:26:24;;;;;;;;;;;;;;;-142.75;100.00;76550.59;5031980;28;19964;-67
2022/07/26 05:28:49;;;;;;;;;;;;;;;-142.75;100.00;76566.34;5032109;28;20371;-67
2022/07/26 05:31:15;;;;;;;;;;;;;;;-142.75;100.00;76570.28;5032223;28;19920;-68
2022/07/26 05:33:40;;;;;;;;;;;;;;;-142.75;100.00;76572.25;5032373;28;19987;-69
2022/07/26 05:36:05;;;;;;;;;;;;;;;-142.75;100.00;76574.22;5032331;28;19913;-66
2022/07/26 05:38:30;;;;;;;;;;;;;;;-142.75;100.00;76582.09;5031951;28;19920;-67
2022/07/26 05:40:55;;;;;;;;;;;;;;;-142.75;100.00;76593.91;5031925;28;19921;-67
2022/07/26 05:43:21;;;;;;;;;;;;;;;-142.75;100.00;76580.13;5032180;28;19913;-67
2022/07/26 05:45:46;;;;;;;;;;;;;;;-142.75;100.00;76582.09;5032163;28;19913;-66
2022/07/26 05:48:11;;;;;;;;;;;;;;;-142.75;100.00;76580.13;5031855;28;19920;-66
2022/07/26 05:50:36;;;;;;;;;;;;;;;-142.75;100.00;76582.09;5032111;28;20344;-67
2022/07/26 05:53:01;;;;;;;;;;;;;;;-142.75;100.00;76593.91;5032100;28;19913;-67
2022/07/26 05:55:27;;;;;;;;;;;;;;;-142.75;100.00;76607.69;5032122;28;19913;-66
2022/07/26 05:57:52;;;;;;;;;;;;;;;-142.75;100.00;76605.72;5031770;28;19913;-66
2022/07/26 06:00:17;;;;;;;;;;;;;;;-142.75;100.00;76605.72;5031943;28;19917;-66
2022/07/26 06:02:42;;;;;;;;;;;;;;;-142.75;100.00;76617.53;5031811;28;19948;-66
2022/07/26 06:05:08;;;;;;;;;;;;;;;-142.75;100.00;76625.41;5032029;28;19924;-66
2022/07/26 06:07:33;;;;;;;;;;;;;;;-142.75;100.00;76633.28;5013979;28;19913;-66
2022/07/26 06:09:58;;;;;;;;;;;;;;;-142.75;100.00;76637.22;5031906;28;19913;-66
2022/07/26 06:12:24;;;;;;;;;;;;;;;-142.75;100.00;76635.25;5031924;28;19913;-66
2022/07/26 06:14:49;;;;;;;;;;;;;;;-142.75;100.00;76625.41;5031956;28;20279;-66
2022/07/26 06:17:14;;;;;;;;;;;;;;;-142.75;100.00;76633.28;5031564;28;19917;-66
2022/07/26 06:19:39;;;;;;;;;;;;;;;-142.75;100.00;76627.38;5031775;28;20453;-66
2022/07/26 06:22:05;;;;;;;;;;;;;;;-142.75;100.00;76637.22;5031802;28;19963;-66
2022/07/26 06:24:30;;;;;;;;;;;;;;;-142.75;100.00;76633.28;5031883;28;19920;-66
2022/07/26 06:26:56;;;;;;;;;;;;;;;-142.75;100.00;76641.16;5031354;28;19913;-66
2022/07/26 06:29:21;;;;;;;;;;;;;;;-142.75;100.00;76643.13;5031114;28;19913;-66
2022/07/26 06:31:46;;;;;;;;;;;;;;;-142.75;100.00;76639.19;5030682;28;19963;-66
2022/07/26 06:34:12;;;;;;;;;;;;;;;-142.75;100.00;76637.22;5030792;28;20386;-66
2022/07/26 06:36:37;;;;;;;;;;;;;;;-142.75;100.00;76633.28;5032605;28;19913;-65
2022/07/26 06:39:02;;;;;;;;;;;;;;;-142.75;100.00;76635.25;5034561;28;19999;-66
2022/07/26 06:41:27;;;;;;;;;;;;;;;-142.75;100.00;76633.28;5034364;28;20421;-66
2022/07/26 06:43:53;;;;;;;;;;;;;;;-142.75;100.00;76627.38;5034245;28;20011;-66
2022/07/26 06:46:19;;;;;;;;;;;;;;;-142.75;100.00;76641.16;5034380;28;19959;-66
2022/07/26 06:48:45;;;;;;;;;;;;;;;-142.75;100.00;76637.22;5034184;28;19913;-66
2022/07/26 06:51:10;;;;;;;;;;;;;;;-142.75;100.00;76641.16;5034171;28;19920;-66
2022/07/26 06:53:35;;;;;;;;;;;;;;;-142.75;100.00;76645.09;5034266;28;19921;-66
2022/07/26 06:56:01;;;;;;;;;;;;;;;-142.75;100.00;76641.16;5016496;28;19913;-66
2022/07/26 06:58:26;;;;;;;;;;;;;;;-142.75;100.00;76639.19;5033843;28;19917;-66
2022/07/26 07:00:51;;;;;;;;;;;;;;;-142.75;100.00;76641.16;5033706;28;19964;-66
2022/07/26 07:03:16;;;;;;;;;;;;;;;-142.75;100.00;76637.22;5016395;28;19919;-66
2022/07/26 07:05:42;;;;;;;;;;;;;;;-142.75;100.00;76633.28;5034018;28;19913;-66
2022/07/26 07:08:07;;;;;;;;;;;;;;;-142.75;100.00;76625.41;5033833;28;19913;-67
2022/07/26 07:10:32;;;;;;;;;;;;;;;-142.75;100.00;76613.59;5034179;28;19913;-66
2022/07/26 07:12:57;;;;;;;;;;;;;;;-142.75;100.00;76607.69;5034814;28;20333;-66
2022/07/26 07:15:22;;;;;;;;;;;;;;;-142.75;100.00;76599.81;5016644;28;19913;-66
2022/07/26 07:17:50;;;;;;;;;;;;;;;-142.75;100.00;76589.97;5034385;28;19917;-66
2022/07/26 07:20:15;;;;;;;;;;;;;;;-142.75;100.00;76572.25;5034417;28;19917;-66
2022/07/26 07:22:40;;;;;;;;;;;;;;;-142.75;100.00;76560.44;5034581;28;19921;-67
2022/07/26 07:25:06;;;;;;;;;;;;;;;-142.75;100.00;76546.66;5034493;28;19924;-66
2022/07/26 07:27:31;;;;;;;;;;;;;;;-142.75;100.00;76521.09;5033978;28;19947;-67
2022/07/26 07:29:56;;;;;;;;;;;;;;;-142.75;100.00;76517.16;5033968;28;19917;-67
2022/07/26 07:32:21;;;;;;;;;;;;;;;-142.75;100.00;76515.19;5034271;28;19914;-66
2022/07/26 07:34:47;;;;;;;;;;;;;;;-142.75;100.00;76515.19;5034397;28;19913;-66
2022/07/26 07:37:12;;;;;;;;;;;;;;;-142.75;100.00;76515.19;5034115;28;19920;-66
2022/07/26 07:39:38;;;;;;;;;;;;;;;-142.75;100.00;76509.28;5034271;28;20452;-66
2022/07/26 07:42:03;;;;;;;;;;;;;;;-142.75;100.00;76503.38;5055592;22;19925;-70
2022/07/26 07:44:28;;;;;;;;;;;;;;;-142.75;100.00;76509.28;5034043;28;20371;-70
2022/07/26 07:46:53;;;;;;;;;;;;;;;-142.75;100.00;76507.31;5033710;28;19920;-70
2022/07/26 07:49:19;;;;;;;;;;;;;;;-142.75;100.00;76515.19;5034143;28;20370;-70
2022/07/26 07:51:44;;;;;;;;;;;;;;;-142.75;100.00;76521.09;5005529;28;19917;-70
2022/07/26 07:54:09;;;;;;;;;;;;;;;-142.75;100.00;76527.00;5014556;28;19920;-70
2022/07/26 07:56:34;;;;;;;;;;;;;;;-142.75;100.00;76538.78;5014204;28;19964;-67
2022/07/26 07:58:59;;;;;;;;;;;;;;;-142.75;100.00;76566.34;5014304;28;19937;-70
2022/07/26 08:01:25;;;;;;;;;;;;;;;-142.75;100.00;76586.03;5014058;28;19928;-71
2022/07/26 08:03:50;;;;;;;;;;;;;;;-142.75;100.00;76605.72;5014466;28;20343;-70
2022/07/26 08:06:15;;;;;;;;;;;;;;;-142.75;100.00;76613.59;4996705;28;19921;-72
2022/07/26 08:08:40;;;;;;;;;;;;;;;-142.75;100.00;76625.41;5013919;28;20018;-69
2022/07/26 08:11:06;;;;;;;;;;;;;;;-142.75;100.00;76625.41;5012735;28;19925;-69
2022/07/26 08:13:31;;;;;;;;;;;;;;;-142.75;100.00;76623.44;5012391;28;19913;-69
2022/07/26 08:15:57;;;;;;;;;;;;;;;-142.75;100.00;76619.50;5013047;28;19913;-69
2022/07/26 08:18:22;;;;;;;;;;;;;;;-142.75;100.00;76613.59;5012859;28;20004;-69
2022/07/26 08:20:48;;;;;;;;;;;;;;;-142.75;100.00;76601.78;5013158;28;19941;-70
2022/07/26 08:23:13;;;;;;;;;;;;;;;-142.75;100.00;76603.75;5012964;28;19945;-71
2022/07/26 08:25:39;;;;;;;;;;;;;;;-142.75;100.00;76586.03;5012695;28;20582;-69
2022/07/26 08:28:04;;;;;;;;;;;;;;;-142.75;100.00;76566.34;5012878;28;20115;-70
2022/07/26 08:30:30;;;;;;;;;;;;;;;-142.75;100.00;76523.06;5012857;28;20011;-69
2022/07/26 08:32:55;;;;;;;;;;;;;;;-142.75;100.00;76495.50;5012803;28;19922;-69
2022/07/26 08:35:20;;;;;;;;;;;;;;;-142.75;100.00;76464.00;5012914;28;19918;-71
2022/07/26 08:37:46;;;;;;;;;;;;;;;-142.75;100.00;76438.41;5012549;28;20421;-69
2022/07/26 08:40:11;;;;;;;;;;;;;;;-142.75;100.00;76424.63;5012596;28;20008;-68
2022/07/26 08:42:37;;;;;;;;;;;;;;;-142.75;100.00;76406.91;5012527;28;20470;-69
2022/07/26 08:45:02;;;;;;;;;;;;;;;-142.75;100.00;76391.16;4995051;28;19913;-69
2022/07/26 08:47:28;;;;;;;;;;;;;;;-142.75;100.00;76412.81;5012348;28;19981;-70
2022/07/26 08:49:53;;;;;;;;;;;;;;;-142.75;100.00;76460.06;4994898;28;19959;-70
2022/07/26 08:52:18;;;;;;;;;;;;;;;-142.75;100.00;76473.84;5012143;28;19913;-70
2022/07/26 08:54:50;;;;;;;;;;;;;;;-142.75;100.00;76493.53;5011980;28;19913;-71
2022/07/26 08:57:15;;;;;;;;;;;;;;;-142.75;100.00;76505.34;5011967;28;20397;-70
2022/07/26 08:59:41;;;;;;;;;;;;;;;-142.75;100.00;76507.31;5012205;28;19959;-71
2022/07/26 09:02:07;;;;;;;;;;;;;;;-142.75;100.00;76511.25;5012343;28;19967;-72
2022/07/26 09:04:34;;;;;;;;;;;;;;;-142.75;100.00;76503.38;5012485;28;20399;-71
2022/07/26 09:07:02;;;;;;;;;;;;;;;-142.75;100.00;76497.47;5011925;28;19929;-69
2022/07/26 09:09:28;;;;;;;;;;;;;;;-142.75;100.00;76491.56;5011916;28;19921;-70
2022/07/26 09:11:54;;;;;;;;;;;;;;;-142.75;100.00;76471.88;5012155;28;20661;-70
2022/07/26 09:14:20;;;;;;;;;;;;;;;-142.75;100.00;76467.94;5012077;28;20302;-70
2022/07/26 09:16:55;;;;;;;;;;;;;;;-142.75;100.00;76456.13;5011774;28;19919;-71
2022/07/26 09:19:22;;;;;;;;;;;;;;;-142.75;100.00;76475.81;4994401;28;19936;-70
2022/07/26 09:21:47;;;;;;;;;;;;;;;-142.75;100.00;76487.63;5011864;28;19918;-71
2022/07/26 09:24:27;;;;;;;;;;;;;;;-142.75;100.00;76497.47;5011959;28;19975;-70
2022/07/26 09:26:57;;;;;;;;;;;;;;;-142.75;100.00;76507.31;4994235;28;19949;-72
2022/07/26 09:29:22;;;;;;;;;;;;;;;-142.75;100.00;76517.16;4994502;28;19975;-71
2022/07/26 09:31:47;;;;;;;;;;;;;;;-142.75;100.00;76534.84;5011936;28;19948;-69
2022/07/26 09:34:22;;;;;;;;;;;;;;;-142.75;100.00;76542.72;5012064;28;19913;-69
2022/07/26 09:36:52;;;;;;;;;;;;;;;-142.75;100.00;76552.56;4994003;28;19913;-69
2022/07/26 09:39:17;;;;;;;;;;;;;;;-142.75;100.00;76566.34;5011565;28;19921;-69
2022/07/26 09:41:42;;;;;;;;;;;;;;;-142.75;100.00;76574.22;5011499;28;19929;-70
2022/07/26 09:44:19;;;;;;;;;;;;;;;-142.75;100.00;76589.97;4994280;28;19913;-70
2022/07/26 09:46:55;;;;;;;;;;;;;;;-142.75;100.00;76597.84;5011699;28;19913;-69
2022/07/26 09:49:21;;;;;;;;;;;;;;;-142.75;100.00;76588.00;4994295;28;19920;-71
2022/07/26 09:51:48;;;;;;;;;;;;;;;-142.75;100.00;76576.19;5011416;28;19947;-69
2022/07/26 09:54:17;;;;;;;;;;;;;;;-142.75;100.00;76566.34;4993975;28;19920;-68
2022/07/26 09:56:50;;;;;;;;;;;;;;;-142.75;100.00;76546.66;5011474;28;19913;-72
2022/07/26 09:59:16;;;;;;;;;;;;;;;-142.75;100.00;76517.16;5011553;28;19964;-69
2022/07/26 10:01:42;;;;;;;;;;;;;;;-142.75;100.00;76499.44;5011696;28;20192;-68
2022/07/26 10:04:08;;;;;;;;;;;;;;;-142.75;100.00;76503.38;5011783;28;20008;-70
2022/07/26 10:06:33;;;;;;;;;;;;;;;-142.75;100.00;76515.19;5011291;28;20566;-68
2022/07/26 10:08:59;;;;;;;;;;;;;;;-142.75;100.00;76534.84;5011459;28;20602;-68
2022/07/26 10:11:25;;;;;;;;;;;;;;;-142.75;100.00;76536.84;5013257;28;19914;-68
2022/07/26 10:13:50;;;;;;;;;;;;;;;-142.75;100.00;76538.78;5015560;28;20428;-69
2022/07/26 10:16:29;;;;;;;;;;;;;;;-142.75;100.00;76550.59;5015343;28;19914;-68
2022/07/26 10:18:56;;;;;;;;;;;;;;;-142.75;100.00;76554.53;5015208;28;19913;-68
2022/07/26 10:21:24;;;;;;;;;;;;;;;-142.75;100.00;76544.69;5015246;28;20391;-69
2022/07/26 10:23:56;;;;;;;;;;;;;;;-142.75;100.00;76542.72;5015211;28;19920;-70
2022/07/26 10:26:30;;;;;;;;;;;;;;;-142.75;100.00;76540.75;5015404;28;19913;-69
2022/07/26 10:29:14;;;;;;;;;;;;;;;-142.75;100.00;76540.75;5015065;28;20302;-71
2022/07/26 10:31:39;;;;;;;;;;;;;;;-142.75;100.00;76532.88;5015170;28;20306;-69
2022/07/26 10:34:04;;;;;;;;;;;;;;;-142.75;100.00;76527.00;5015163;28;19917;-70
2022/07/26 10:36:37;;;;;;;;;;;;;;;-142.75;100.00;76528.97;4997262;28;19914;-68
2022/07/26 10:39:02;;;;;;;;;;;;;;;-142.75;100.00;76515.19;5014792;28;19921;-70
2022/07/26 10:41:38;;;;;;;;;;;;;;;-142.75;100.00;76495.50;4997313;28;19922;-70
2022/07/26 10:44:11;;;;;;;;;;;;;;;-142.75;100.00;76487.63;5014999;28;19917;-71
2022/07/26 10:46:53;;;;;;;;;;;;;;;-142.75;100.00;76485.66;5014695;28;19921;-69
2022/07/26 10:49:19;;;;;;;;;;;;;;;-142.75;100.00;76450.22;5014767;28;19920;-67
2022/07/26 10:51:44;;;;;;;;;;;;;;;-142.75;100.00;76410.84;5014537;28;19917;-67
2022/07/26 10:54:10;;;;;;;;;;;;;;;-142.75;100.00;76381.31;5014516;28;19913;-69
2022/07/26 10:56:36;;;;;;;;;;;;;;;-142.75;100.00;76359.66;4996758;28;19925;-69
2022/07/26 10:59:02;;;;;;;;;;;;;;;-142.75;100.00;76353.78;4996969;28;19913;-70
2022/07/26 11:01:38;;;;;;;;;;;;;;;-142.75;100.00;76341.97;5014465;28;19925;-68
2022/07/26 11:04:04;;;;;;;;;;;;;;;-142.75;100.00;76326.22;5014128;28;19925;-68
2022/07/26 11:06:29;;;;;;;;;;;;;;;-142.75;100.00;76320.31;4996457;28;20001;-68
2022/07/26 11:08:55;;;;;;;;;;;;;;;-142.75;100.00;76302.59;5014015;28;20003;-68
2022/07/26 11:11:32;;;;;;;;;;;;;;;-142.75;100.00;76304.56;5014646;28;19913;-68
2022/07/26 11:14:07;;;;;;;;;;;;;;;-142.75;100.00;76340.00;5014536;28;19913;-71
2022/07/26 11:16:36;;;;;;;;;;;;;;;-142.75;100.00;76345.91;5014192;28;19999;-68
2022/07/26 11:19:11;;;;;;;;;;;;;;;-142.75;100.00;76351.81;5014286;28;20005;-69
2022/07/26 11:21:36;;;;;;;;;;;;;;;-142.75;100.00;76326.22;5013993;28;19922;-69
2022/07/26 11:24:02;;;;;;;;;;;;;;;-142.75;100.00;76318.34;5013101;28;19975;-69
2022/07/26 11:26:30;;;;;;;;;;;;;;;-142.75;100.00;76290.78;5014105;28;19927;-71
2022/07/26 11:28:57;;;;;;;;;;;;;;;-142.75;100.00;76273.06;5014270;28;19913;-68
2022/07/26 11:31:25;;;;;;;;;;;;;;;-142.75;100.00;76233.69;5014084;28;19920;-68
2022/07/26 11:33:50;;;;;;;;;;;;;;;-142.75;100.00;76219.91;5014085;28;19967;-69
2022/07/26 11:36:17;;;;;;;;;;;;;;;-142.75;100.00;76184.50;5013942;28;20012;-71
2022/07/26 11:38:52;;;;;;;;;;;;;;;-142.75;100.00;76129.38;5013571;28;19935;-68
2022/07/26 11:41:25;;;;;;;;;;;;;;;-142.75;100.00;76095.91;5013491;28;19976;-69
2022/07/26 11:43:52;;;;;;;;;;;;;;;-142.75;100.00;76105.75;5014028;28;19914;-68
2022/07/26 11:46:18;;;;;;;;;;;;;;;-142.75;100.00;76119.53;5013605;28;19921;-68
2022/07/26 11:48:44;;;;;;;;;;;;;;;-142.75;100.00;76156.94;5013514;28;20402;-70
2022/07/26 11:51:09;;;;;;;;;;;;;;;-142.75;100.00;76180.56;5013579;28;19913;-72
2022/07/26 11:53:38;;;;;;;;;;;;;;;-142.75;100.00;76217.94;5013546;28;19917;-70
2022/07/26 11:56:14;;;;;;;;;;;;;;;-142.75;100.00;76245.50;5013772;28;19918;-70
2022/07/26 11:58:40;;;;;;;;;;;;;;;-142.75;100.00;76282.91;5013566;28;20008;-70
2022/07/26 12:01:06;;;;;;;;;;;;;;;-142.75;100.00;76304.56;4995693;28;19926;-71
2022/07/26 12:03:35;;;;;;;;;;;;;;;-142.75;100.00;76338.03;4995996;28;19914;-69
2022/07/26 12:06:05;;;;;;;;;;;;;;;-142.75;100.00;76332.13;5013520;28;19956;-68
2022/07/26 12:09:02;;;;;;;;;;;;;;;-142.75;100.00;76318.34;5012770;28;19913;-68
2022/07/26 12:11:36;;;;;;;;;;;;;;;-142.75;100.00;76326.22;4990531;28;19914;-68
2022/07/26 12:14:02;;;;;;;;;;;;;;;-142.75;100.00;76324.25;5013368;28;20463;-69